Time;durP1;ratioP1;P1;durP2;ratioP2;P2;SDS_P1;SDS_P2;PMS_P1;PMS_P2;Temp;Humidity;BMP_temperature;BMP_pressure;BME280_temperature;BME280_humidity;BME280_pressure;Samples;Min_cycle;Max_cycle;Signal;HPM_P1;HPM_P2
2022/12/23 00:00:16;;;;;;;8.25;2.60;;;;;;;9.45;nan;99411.66;4992839;28;20117;-87
2022/12/23 00:02:42;;;;;;;7.78;2.10;;;;;;;9.47;nan;99411.50;4987231;28;20069;-87
2022/12/23 00:05:08;;;;;;;7.63;2.20;;;;;;;9.46;nan;99413.31;5009133;28;20036;-87
2022/12/23 00:07:33;;;;;;;6.18;2.03;;;;;;;9.45;nan;99411.66;4995138;28;20026;-87
2022/12/23 00:09:58;;;;;;;7.95;2.05;;;;;;;9.45;nan;99406.38;4997764;28;20069;-87
2022/12/23 00:15:09;;;;;;;7.63;1.80;;;;;;;9.45;nan;99409.00;4974559;28;20097;-86
2022/12/23 00:17:37;;;;;;;5.18;1.58;;;;;;;9.46;nan;99410.69;4990492;28;20121;-86
2022/12/23 00:20:04;;;;;;;4.45;1.77;;;;;;;9.47;nan;99414.94;4993033;28;20122;-86
2022/12/23 00:25:14;;;;;;;4.88;2.00;;;;;;;9.45;nan;99402.94;4991036;28;20048;-86
2022/12/23 00:27:40;;;;;;;7.32;1.77;;;;;;;9.45;nan;99389.72;4994179;28;20030;-86
2022/12/23 00:30:08;;;;;;;6.70;1.70;;;;;;;9.44;nan;99396.00;4996454;28;20050;-87
2022/12/23 00:32:34;;;;;;;6.13;1.90;;;;;;;9.44;nan;99386.28;4996019;28;20095;-86
2022/12/23 00:34:59;;;;;;;5.13;1.67;;;;;;;9.43;nan;99384.63;4999236;28;20134;-87
2022/12/23 00:37:24;;;;;;;4.07;1.67;;;;;;;9.45;nan;99381.81;4998115;28;20128;-87
2022/12/23 00:42:52;;;;;;;3.60;1.50;;;;;;;9.45;nan;99397.66;4994173;28;20046;-86
2022/12/23 00:45:17;;;;;;;4.50;1.60;;;;;;;9.46;nan;99400.13;4994829;28;20045;-86
2022/12/23 00:50:30;;;;;;;5.20;1.65;;;;;;;9.48;nan;99398.09;4999164;28;20042;-87
2022/12/23 00:52:55;;;;;;;4.30;1.73;;;;;;;9.48;nan;99402.56;5001362;28;20038;-87
2022/12/23 00:55:21;;;;;;;3.65;1.40;;;;;;;9.49;nan;99401.59;4998635;28;20097;-86
2022/12/23 00:57:47;;;;;;;3.45;1.42;;;;;;;9.48;nan;99408.66;4996637;28;20062;-86
2022/12/23 01:00:13;;;;;;;7.45;2.00;;;;;;;9.49;nan;99412.97;4996006;28;20042;-87
2022/12/23 01:05:37;;;;;;;4.35;1.92;;;;;;;9.50;nan;99427.78;4994159;28;20034;-86
2022/12/23 01:08:03;;;;;;;5.28;1.65;;;;;;;9.49;nan;99409.50;4991648;28;20034;-86
2022/12/23 01:10:28;;;;;;;7.20;1.85;;;;;;;9.52;nan;99415.25;4991136;28;20070;-86
2022/12/23 01:12:53;;;;;;;4.57;1.80;;;;;;;9.52;nan;99419.72;4974447;28;20027;-86
2022/12/23 01:15:19;;;;;;;4.35;1.80;;;;;;;9.51;nan;99425.97;4988365;28;20034;-86
2022/12/23 01:17:44;;;;;;;6.10;1.80;;;;;;;9.53;nan;99429.25;4977068;28;20126;-86
2022/12/23 01:20:10;;;;;;;4.72;1.70;;;;;;;9.52;nan;99435.53;4989967;28;20042;-87
2022/12/23 01:22:35;;;;;;;3.25;1.77;;;;;;;9.54;nan;99449.41;4982335;28;20037;-86
2022/12/23 01:25:01;;;;;;;6.03;2.15;;;;;;;9.56;nan;99442.13;4989393;28;20042;-86
2022/12/23 01:27:26;;;;;;;6.38;2.20;;;;;;;9.57;nan;99443.78;4991812;28;20049;-86
2022/12/23 01:29:52;;;;;;;3.67;2.05;;;;;;;9.55;nan;99443.13;4991113;28;20043;-86
2022/12/23 01:32:17;;;;;;;3.45;1.75;;;;;;;9.57;nan;99454.31;4985729;28;20053;-86
2022/12/23 01:34:42;;;;;;;4.65;1.90;;;;;;;9.57;nan;99446.41;4983641;28;20042;-85
2022/12/23 01:37:08;;;;;;;4.47;1.80;;;;;;;9.57;nan;99454.31;4994412;28;20750;-86
2022/12/23 01:39:33;;;;;;;3.63;1.98;;;;;;;9.59;nan;99460.25;4993227;28;20042;-86
2022/12/23 01:42:44;;;;;;;4.50;1.98;;;;;;;9.60;nan;99464.53;4992460;28;20105;-86
2022/12/23 01:44:59;;;;;;;4.93;1.70;;;;;;;9.61;nan;99478.56;4981029;28;20041;-86
2022/12/23 01:47:43;;;;;;;5.03;1.88;;;;;;;9.65;nan;99480.66;4984515;28;20069;-86
2022/12/23 01:50:34;;;;;;;4.22;1.88;;;;;;;9.65;nan;99485.13;4985138;28;20042;-86
2022/12/23 01:53:16;;;;;;;3.30;1.83;;;;;;;9.64;nan;99492.25;4990812;28;20034;-86
2022/12/23 01:55:56;;;;;;;5.85;2.15;;;;;;;9.67;nan;99491.06;4990650;28;20032;-86
2022/12/23 01:58:29;;;;;;;6.70;2.30;;;;;;;9.67;nan;99498.97;4991786;28;20085;-86
2022/12/23 02:03:41;;;;;;;3.58;2.20;;;;;;;9.68;nan;99498.81;4991477;28;20102;-86
2022/12/23 02:09:18;;;;;;;3.03;1.83;;;;;;;9.74;nan;99507.88;4991029;28;20050;-86
2022/12/23 02:11:58;;;;;;;4.15;1.50;;;;;;;9.76;nan;99511.16;4989676;28;20096;-86
2022/12/23 02:17:59;;;;;;;3.63;1.98;;;;;;;9.80;nan;99523.03;4990639;28;20049;-86
2022/12/23 02:20:39;;;;;;;3.88;1.90;;;;;;;9.81;nan;99524.66;4988655;28;20763;-85
2022/12/23 02:23:30;;;;;;;3.25;1.83;;;;;;;9.83;nan;99530.59;4988468;28;20042;-87
2022/12/23 02:26:23;;;;;;;3.78;1.83;;;;;;;9.85;nan;99531.25;4989472;28;20079;-86
2022/12/23 02:29:13;;;;;;;4.60;2.00;;;;;;;9.89;nan;99542.28;4990232;28;20042;-87
2022/12/23 02:31:58;;;;;;;3.95;2.03;;;;;;;9.90;nan;99544.78;4989890;28;20118;-86
2022/12/23 02:34:51;;;;;;;4.43;2.10;;;;;;;9.95;nan;99546.91;4985465;28;20034;-86
2022/12/23 02:37:34;;;;;;;4.50;1.92;;;;;;;9.97;nan;99550.19;4990696;28;20034;-86
2022/12/23 02:40:20;;;;;;;5.22;2.20;;;;;;;10.00;nan;99558.56;4988964;28;20038;-86
2022/12/23 02:43:07;;;;;;;5.90;2.28;;;;;;;10.01;nan;99567.34;4989808;28;20034;-86
2022/12/23 02:45:55;;;;;;;4.18;2.50;;;;;;;10.03;nan;99560.06;4991836;28;20536;-86
2022/12/23 02:48:53;;;;;;;3.65;1.92;;;;;;;10.05;nan;99559.88;4984838;28;20626;-86
2022/12/23 02:51:21;;;;;;;2.95;1.60;;;;;;;10.22;nan;99569.38;4982021;28;20495;-86
2022/12/23 02:53:51;;;;;;;5.43;2.20;;;;;;;10.19;nan;99570.53;4986188;28;20038;-86
2022/12/23 02:56:18;;;;;;;;;;;;;;;10.16;nan;99572.72;4998225;28;20042;-86
2022/12/23 02:58:50;;;;;;;4.13;2.22;;;;;;;10.18;nan;99573.38;4985526;28;19937;-86
2022/12/23 03:01:16;;;;;;;2.70;1.80;;;;;;;10.16;nan;99570.91;4992015;28;20038;-86
2022/12/23 03:03:44;;;;;;;3.40;2.15;;;;;;;10.18;nan;99573.38;4991559;28;20084;-87
2022/12/23 03:06:19;;;;;;;3.17;1.80;;;;;;;10.18;nan;99578.66;5007820;28;20038;-86
2022/12/23 03:08:44;;;;;;;2.67;1.80;;;;;;;10.17;nan;99582.28;4992363;28;20026;-86
2022/12/23 03:11:14;;;;;;;2.50;1.70;;;;;;;10.10;nan;99584.78;4993194;28;20041;-87
2022/12/23 03:13:52;;;;;;;;;;;;;;;10.05;nan;99591.59;4993641;28;20101;-86
2022/12/23 03:16:30;;;;;;;;;;;;;;;10.04;nan;99597.88;4992013;28;19920;-86
2022/12/23 03:19:04;;;;;;;3.92;1.70;;;;;;;10.01;nan;99593.75;4993123;28;19926;-86
2022/12/23 03:21:42;;;;;;;2.75;1.70;;;;;;;9.97;nan;99595.91;4996896;28;20133;-86
2022/12/23 03:24:36;;;;;;;3.65;1.90;;;;;;;9.98;nan;99599.38;4994631;28;20047;-86
2022/12/23 03:27:10;;;;;;;2.75;1.60;;;;;;;10.00;nan;99603.47;5002801;28;20606;-86
2022/12/23 03:29:49;;;;;;;3.28;1.80;;;;;;;10.03;nan;99604.13;4994333;28;20125;-85
2022/12/23 03:32:16;;;;;;;3.35;1.90;;;;;;;10.05;nan;99607.44;4978896;28;20054;-86
2022/12/23 03:34:46;;;;;;;3.05;1.40;;;;;;;10.20;nan;99614.47;4991348;28;20506;-86
2022/12/23 03:37:16;;;;;;;3.30;1.40;;;;;;;10.32;nan;99625.53;4990201;28;20410;-86
2022/12/23 03:39:48;;;;;;;2.30;1.40;;;;;;;10.20;nan;99624.19;4996666;28;20384;-85
2022/12/23 03:42:27;;;;;;;2.95;1.30;;;;;;;10.10;nan;99624.41;4992677;28;20551;-86
2022/12/23 03:44:55;;;;;;;2.83;1.30;;;;;;;10.04;nan;99622.47;4992211;28;20045;-86
2022/12/23 03:47:27;;;;;;;2.55;1.30;;;;;;;10.03;nan;99626.09;4990305;28;20085;-86
2022/12/23 03:49:58;;;;;;;2.95;1.77;;;;;;;10.03;nan;99634.00;4990102;28;20062;-85
2022/12/23 03:52:29;;;;;;;;;;;;;;;10.06;nan;99630.19;4985916;28;20041;-86
2022/12/23 03:54:56;;;;;;;;;;;;;;;10.04;nan;99627.75;4990245;28;19922;-84
2022/12/23 03:57:27;;;;;;;2.63;1.60;;;;;;;10.04;nan;99626.94;4991423;28;19918;-86
2022/12/23 03:59:53;;;;;;;;;;;;;;;10.02;nan;99637.66;4992254;28;20034;-85
2022/12/23 04:02:21;;;;;;;;;;;;;;;9.98;nan;99631.06;4991292;28;19914;-85
2022/12/23 04:05:21;;;;;;;3.90;1.92;;;;;;;9.97;nan;99646.09;4992168;28;19992;-85
2022/12/23 04:08:14;;;;;;;2.90;1.98;;;;;;;9.99;nan;99649.38;4979571;28;20037;-85
2022/12/23 04:10:40;;;;;;;1.90;1.40;;;;;;;9.99;nan;99654.66;4991642;28;20042;-87
2022/12/23 04:13:06;;;;;;;3.42;1.70;;;;;;;10.00;nan;99664.22;4992825;28;20113;-86
2022/12/23 04:15:31;;;;;;;2.72;1.55;;;;;;;9.98;nan;99673.31;4991971;28;20034;-85
2022/12/23 04:17:57;;;;;;;3.17;1.90;;;;;;;10.12;nan;99674.44;4989543;28;20442;-86
2022/12/23 04:20:23;;;;;;;2.15;1.40;;;;;;;10.07;nan;99685.50;4992125;28;20033;-86
2022/12/23 04:22:49;;;;;;;2.50;1.70;;;;;;;10.05;nan;99676.09;4990370;28;20030;-85
2022/12/23 04:25:16;;;;;;;3.38;1.55;;;;;;;10.06;nan;99675.94;4992507;28;20038;-86
2022/12/23 04:27:41;;;;;;;3.92;1.58;;;;;;;10.04;nan;99672.66;4992734;28;20540;-85
2022/12/23 04:30:08;;;;;;;3.33;1.80;;;;;;;10.04;nan;99663.91;4991739;28;20046;-86
2022/12/23 04:32:34;;;;;;;2.90;1.85;;;;;;;10.02;nan;99666.72;4994055;28;20121;-86
2022/12/23 04:34:59;;;;;;;4.50;2.13;;;;;;;10.03;nan;99670.16;4991193;28;20065;-86
2022/12/23 04:37:24;;;;;;;;;;;;;;;10.02;nan;99682.56;4984151;28;20039;-85
2022/12/23 04:39:49;;;;;;;3.33;2.13;;;;;;;9.97;nan;99688.34;4989712;28;19918;-86
2022/12/23 04:42:15;;;;;;;3.35;1.80;;;;;;;9.94;nan;99685.22;4989360;28;20100;-86
2022/12/23 04:44:40;;;;;;;3.63;1.70;;;;;;;9.93;nan;99688.84;4988987;28;20064;-85
2022/12/23 04:47:05;;;;;;;2.33;1.70;;;;;;;9.94;nan;99677.31;4990348;28;20110;-86
2022/12/23 04:49:30;;;;;;;3.58;2.03;;;;;;;9.95;nan;99677.13;4987316;28;20046;-86
2022/12/23 04:51:56;;;;;;;4.15;2.22;;;;;;;9.97;nan;99672.50;4988784;28;20055;-85
2022/12/23 04:54:21;;;;;;;2.63;1.73;;;;;;;9.99;nan;99669.69;4989948;28;20053;-85
2022/12/23 04:56:46;;;;;;;3.58;1.90;;;;;;;9.99;nan;99672.34;4989023;28;20030;-85
2022/12/23 04:59:12;;;;;;;3.90;1.90;;;;;;;9.99;nan;99667.06;4978088;28;20045;-86
2022/12/23 05:01:37;;;;;;;3.00;2.10;;;;;;;9.97;nan;99669.84;4990817;28;20061;-86
2022/12/23 05:04:03;;;;;;;3.85;2.40;;;;;;;9.95;nan;99666.56;4991441;28;20129;-85
2022/12/23 05:06:28;;;;;;;2.75;1.67;;;;;;;9.96;nan;99670.84;4988787;28;20120;-86
2022/12/23 05:08:53;;;;;;;4.20;2.20;;;;;;;9.97;nan;99669.03;4989463;28;20038;-85
2022/12/23 05:11:19;;;;;;;3.15;2.00;;;;;;;9.99;nan;99674.97;4990864;28;20038;-86
2022/12/23 05:13:44;;;;;;;4.65;2.47;;;;;;;9.99;nan;99670.50;4988467;28;20050;-86
2022/12/23 05:16:09;;;;;;;5.40;2.20;;;;;;;9.99;nan;99680.25;4976697;28;20046;-86
2022/12/23 05:18:34;;;;;;;3.50;1.87;;;;;;;10.09;nan;99688.00;4991278;28;20398;-86
2022/12/23 05:21:00;;;;;;;3.73;2.00;;;;;;;10.04;nan;99688.50;4990918;28;20070;-86
2022/12/23 05:23:25;;;;;;;3.83;2.00;;;;;;;9.97;nan;99687.53;4990781;28;20409;-86
2022/12/23 05:25:52;;;;;;;4.05;2.17;;;;;;;9.90;nan;99691.81;4983336;28;20097;-85
2022/12/23 05:28:18;;;;;;;3.15;1.88;;;;;;;9.88;nan;99691.16;4987136;28;20070;-86
2022/12/23 05:30:43;;;;;;;4.10;2.15;;;;;;;9.87;nan;99694.81;4989756;28;20057;-86
2022/12/23 05:33:09;;;;;;;5.75;2.60;;;;;;;9.88;nan;99693.81;4990643;28;20058;-86
2022/12/23 05:35:34;;;;;;;;;;;;;;;9.89;nan;99696.28;4984057;28;20477;-85
2022/12/23 05:38:02;;;;;;;2.70;1.80;;;;;;;9.92;nan;99695.13;4989517;28;19918;-87
2022/12/23 05:40:27;;;;;;;;;;;;;;;9.91;nan;99696.09;4990322;28;20069;-86
2022/12/23 05:42:52;;;;;;;;;;;;;;;9.91;nan;99691.63;4990696;28;19922;-86
2022/12/23 05:45:17;;;;;;;2.80;1.40;;;;;;;9.94;nan;99690.50;4987672;28;20376;-85
2022/12/23 05:47:43;;;;;;;2.10;1.30;;;;;;;9.92;nan;99682.75;4986233;28;20122;-86
2022/12/23 05:50:08;;;;;;;2.43;1.40;;;;;;;10.06;nan;99681.22;4987738;28;20421;-86
2022/12/23 05:52:33;;;;;;;1.92;1.10;;;;;;;10.03;nan;99684.19;4989297;28;20035;-86
2022/12/23 05:54:59;;;;;;;1.80;1.10;;;;;;;10.13;nan;99684.84;4989219;28;20757;-86
2022/12/23 05:57:24;;;;;;;3.03;1.20;;;;;;;10.21;nan;99684.00;4987870;28;20426;-85
2022/12/23 05:59:49;;;;;;;1.98;1.17;;;;;;;10.11;nan;99686.00;4993282;28;20072;-86
2022/12/23 06:02:15;;;;;;;3.63;1.15;;;;;;;10.04;nan;99692.97;4991410;28;20416;-86
2022/12/23 06:04:40;;;;;;;2.67;1.30;;;;;;;10.02;nan;99687.03;4993780;28;20041;-86
2022/12/23 06:07:06;;;;;;;3.15;1.08;;;;;;;10.00;nan;99690.63;4996052;28;20073;-86
2022/12/23 06:09:31;;;;;;;1.65;0.98;;;;;;;9.99;nan;99691.63;4995444;28;20049;-85
2022/12/23 06:11:56;;;;;;;2.78;1.38;;;;;;;9.99;nan;99699.56;4994355;28;20683;-86
2022/12/23 06:14:22;;;;;;;2.03;1.20;;;;;;;9.95;nan;99692.97;4991482;28;20503;-86
2022/12/23 06:16:47;;;;;;;2.22;1.20;;;;;;;9.96;nan;99689.34;4991511;28;20045;-86
2022/12/23 06:19:12;;;;;;;1.77;1.10;;;;;;;9.95;nan;99685.03;4993395;28;20400;-86
2022/12/23 06:21:38;;;;;;;1.73;1.17;;;;;;;9.95;nan;99692.97;4995003;28;20392;-85
2022/12/23 06:24:03;;;;;;;2.88;1.52;;;;;;;9.93;nan;99683.56;4995246;28;20349;-86
2022/12/23 06:26:29;;;;;;;3.05;1.60;;;;;;;9.89;nan;99690.16;4993905;28;20042;-86
2022/12/23 06:28:54;;;;;;;2.58;1.70;;;;;;;9.81;nan;99695.47;4994604;28;20038;-86
2022/12/23 06:31:19;;;;;;;2.17;1.20;;;;;;;9.83;nan;99704.06;4994111;28;20046;-85
2022/12/23 06:33:44;;;;;;;2.50;1.45;;;;;;;9.83;nan;99711.97;4993755;28;20490;-86
2022/12/23 06:36:10;;;;;;;1.63;1.10;;;;;;;9.82;nan;99712.94;4990603;28;20031;-85
2022/12/23 06:38:35;;;;;;;2.50;1.20;;;;;;;9.82;nan;99710.31;4993332;28;20060;-86
2022/12/23 06:41:00;;;;;;;2.85;1.40;;;;;;;9.80;nan;99713.13;4992581;28;20038;-86
2022/12/23 06:43:26;;;;;;;2.50;1.30;;;;;;;9.81;nan;99722.69;4992726;28;20050;-86
2022/12/23 06:45:51;;;;;;;2.55;1.40;;;;;;;9.82;nan;99723.50;4994735;28;20058;-86
2022/12/23 06:48:16;;;;;;;1.90;1.20;;;;;;;9.83;nan;99727.81;4985882;28;20050;-86
2022/12/23 06:50:42;;;;;;;2.08;1.02;;;;;;;9.86;nan;99728.28;4991144;28;20087;-86
2022/12/23 06:53:08;;;;;;;2.17;1.30;;;;;;;9.85;nan;99736.41;4992714;28;20031;-86
2022/12/23 06:55:33;;;;;;;1.83;1.10;;;;;;;9.84;nan;99732.09;4992200;28;20042;-86
2022/12/23 06:57:59;;;;;;;2.13;1.30;;;;;;;9.84;nan;99732.91;4991022;28;20049;-86
2022/12/23 07:00:25;;;;;;;2.35;1.23;;;;;;;9.85;nan;99731.94;4987343;28;20038;-86
2022/12/23 07:02:52;;;;;;;1.52;1.10;;;;;;;9.89;nan;99737.69;4998395;28;20034;-86
2022/12/23 07:05:18;;;;;;;1.65;1.08;;;;;;;9.86;nan;99730.94;4996554;28;20756;-86
2022/12/23 07:07:43;;;;;;;2.22;1.50;;;;;;;9.83;nan;99731.28;4986724;28;20066;-85
2022/12/23 07:10:09;;;;;;;3.35;1.80;;;;;;;9.84;nan;99732.09;4983035;28;20033;-85
2022/12/23 07:12:34;;;;;;;2.10;1.48;;;;;;;9.85;nan;99734.56;5001851;28;20041;-85
2022/12/23 07:14:59;;;;;;;3.30;1.30;;;;;;;9.90;nan;99726.97;4991571;28;20034;-85
2022/12/23 07:17:24;;;;;;;3.28;1.40;;;;;;;9.95;nan;99721.19;4999968;28;20030;-85
2022/12/23 07:19:50;;;;;;;2.10;1.40;;;;;;;9.97;nan;99719.22;5006078;28;20034;-86
2022/12/23 07:22:15;;;;;;;2.50;1.50;;;;;;;9.99;nan;99717.22;4981455;28;20035;-86
2022/12/23 07:24:40;;;;;;;2.67;1.40;;;;;;;10.02;nan;99708.97;5007715;28;20048;-86
2022/12/23 07:27:06;;;;;;;2.83;1.88;;;;;;;10.03;nan;99715.06;4985662;28;20034;-86
2022/12/23 07:29:31;;;;;;;3.22;1.75;;;;;;;9.98;nan;99710.28;4989098;28;20038;-86
2022/12/23 07:31:57;;;;;;;2.73;1.40;;;;;;;10.08;nan;99713.59;4987770;28;20489;-86
2022/12/23 07:34:22;;;;;;;2.25;1.65;;;;;;;10.09;nan;99703.84;4989671;28;20089;-87
2022/12/23 07:36:47;;;;;;;2.42;1.60;;;;;;;10.09;nan;99695.91;4990663;28;20098;-86
2022/12/23 07:39:13;;;;;;;2.30;1.70;;;;;;;10.21;nan;99694.56;4991364;28;20413;-86
2022/12/23 07:41:38;;;;;;;2.60;1.40;;;;;;;10.29;nan;99706.94;4986318;28;20443;-87
2022/12/23 07:44:03;;;;;;;1.90;1.30;;;;;;;10.36;nan;99721.94;4991728;28;20438;-86
2022/12/23 07:46:29;;;;;;;2.70;1.70;;;;;;;10.30;nan;99735.84;5001242;28;20068;-86
2022/12/23 07:48:54;;;;;;;1.98;1.30;;;;;;;10.30;nan;99745.59;4992607;28;20041;-86
2022/12/23 07:51:20;;;;;;;2.47;1.50;;;;;;;10.45;nan;99759.75;4997807;28;20410;-85
2022/12/23 07:53:49;;;;;;;2.53;1.30;;;;;;;10.56;nan;99756.75;4996866;28;20422;-86
2022/12/23 07:56:15;;;;;;;2.55;1.30;;;;;;;10.63;nan;99756.91;4998801;28;20414;-86
2022/12/23 07:58:41;;;;;;;1.40;1.20;;;;;;;10.68;nan;99749.28;4997659;28;20390;-86
2022/12/23 08:01:06;;;;;;;1.90;1.30;;;;;;;10.60;nan;99746.66;4997659;28;20045;-86
2022/12/23 08:03:33;;;;;;;1.77;1.20;;;;;;;10.63;nan;99756.91;4996193;28;20988;-85
2022/12/23 08:06:02;;;;;;;;;;;;;;;10.47;nan;99741.91;5000326;28;20054;-85
2022/12/23 08:08:28;;;;;;;;;;;;;;;10.36;nan;99732.50;4995157;28;19985;-85
2022/12/23 08:11:02;;;;;;;1.52;1.13;;;;;;;10.26;nan;99734.50;4992060;28;19962;-86
2022/12/23 08:13:28;;;;;;;2.88;1.48;;;;;;;10.24;nan;99744.41;4997682;28;20054;-85
2022/12/23 08:15:54;;;;;;;;;;;;;;;10.23;nan;99747.25;5004319;28;20432;-85
2022/12/23 08:18:19;;;;;;;1.60;1.10;;;;;;;10.24;nan;99748.88;5000526;28;19924;-86
2022/12/23 08:20:55;;;;;;;1.92;1.33;;;;;;;10.28;nan;99742.28;4997291;28;20054;-86
2022/12/23 08:23:21;;;;;;;2.60;1.70;;;;;;;10.32;nan;99754.16;4996909;28;20110;-86
2022/12/23 08:25:47;;;;;;;3.47;1.70;;;;;;;10.32;nan;99747.06;4998345;28;20462;-85
2022/12/23 08:28:12;;;;;;;2.63;2.00;;;;;;;10.36;nan;99744.91;4987956;28;20049;-84
2022/12/23 08:30:37;;;;;;;3.05;2.13;;;;;;;10.36;nan;99732.50;5013237;28;20044;-85
2022/12/23 08:33:02;;;;;;;4.20;2.38;;;;;;;10.36;nan;99740.44;4997030;28;20132;-85
2022/12/23 08:35:29;;;;;;;4.00;2.33;;;;;;;10.39;nan;99740.13;4997258;28;20049;-86
2022/12/23 08:37:54;;;;;;;3.67;2.22;;;;;;;10.39;nan;99734.84;4996381;28;20097;-86
2022/12/23 08:40:19;;;;;;;4.10;2.08;;;;;;;10.41;nan;99735.47;4994721;28;20022;-86
2022/12/23 08:42:46;;;;;;;2.72;1.90;;;;;;;10.44;nan;99747.53;4995973;28;20038;-85
2022/12/23 08:45:11;;;;;;;2.60;1.70;;;;;;;10.48;nan;99762.03;4995976;28;20675;-85
2022/12/23 08:47:36;;;;;;;2.03;1.55;;;;;;;10.51;nan;99767.00;4997998;28;20054;-85
2022/12/23 08:50:02;;;;;;;2.28;1.50;;;;;;;10.56;nan;99756.75;5002047;28;20058;-87
2022/12/23 08:52:28;;;;;;;2.63;1.48;;;;;;;10.60;nan;99762.50;4993232;28;20041;-85
2022/12/23 08:54:53;;;;;;;2.03;1.40;;;;;;;10.61;nan;99764.16;4997156;28;20037;-85
2022/12/23 08:57:18;;;;;;;1.92;1.48;;;;;;;10.67;nan;99763.47;4996776;28;20031;-86
2022/12/23 08:59:44;;;;;;;2.33;1.33;;;;;;;10.76;nan;99773.03;5014676;28;20042;-86
2022/12/23 09:02:11;;;;;;;2.05;1.38;;;;;;;10.82;nan;99758.28;4996134;28;20045;-86
2022/12/23 09:04:37;;;;;;;2.20;1.52;;;;;;;10.84;nan;99749.22;4996899;28;20042;-85
2022/12/23 09:07:02;;;;;;;2.08;1.50;;;;;;;10.91;nan;99746.66;4998394;28;20031;-85
2022/12/23 09:09:28;;;;;;;2.00;1.27;;;;;;;10.97;nan;99753.09;4994114;28;20557;-85
2022/12/23 09:11:53;;;;;;;1.70;1.20;;;;;;;11.01;nan;99759.69;4995546;28;20042;-85
2022/12/23 09:14:18;;;;;;;2.35;1.40;;;;;;;11.01;nan;99765.81;4993674;28;20042;-85
2022/12/23 09:16:44;;;;;;;1.70;1.30;;;;;;;10.98;nan;99763.50;4995123;28;20038;-85
2022/12/23 09:19:10;;;;;;;2.35;1.30;;;;;;;10.99;nan;99759.06;4995885;28;20061;-85
2022/12/23 09:21:35;;;;;;;2.70;1.13;;;;;;;10.97;nan;99758.41;4996627;28;20039;-85
2022/12/23 09:24:01;;;;;;;1.73;1.20;;;;;;;10.96;nan;99762.84;4996723;28;20049;-85
2022/12/23 09:26:28;;;;;;;1.50;1.10;;;;;;;10.94;nan;99761.38;4990226;28;20062;-85
2022/12/23 09:28:55;;;;;;;1.73;1.17;;;;;;;10.94;nan;99767.50;4996114;28;20042;-85
2022/12/23 09:31:21;;;;;;;2.13;1.10;;;;;;;10.96;nan;99769.97;4997353;28;20057;-85
2022/12/23 09:33:48;;;;;;;1.25;0.93;;;;;;;10.96;nan;99767.31;4998714;28;20065;-86
2022/12/23 09:36:14;;;;;;;2.25;1.40;;;;;;;10.95;nan;99757.75;4996309;28;20042;-86
2022/12/23 09:38:39;;;;;;;3.53;1.48;;;;;;;10.96;nan;99754.09;4997141;28;20053;-85
2022/12/23 09:41:22;;;;;;;2.35;1.30;;;;;;;10.93;nan;99747.31;4998030;28;20041;-85
2022/12/23 09:44:11;;;;;;;2.42;1.30;;;;;;;10.93;nan;99752.63;4990592;28;20041;-85
2022/12/23 09:47:03;;;;;;;2.08;1.20;;;;;;;10.91;nan;99738.72;4993720;28;20461;-85
2022/12/23 09:49:29;;;;;;;1.90;1.10;;;;;;;10.92;nan;99734.28;4992367;28;20089;-85
2022/12/23 09:52:00;;;;;;;1.80;1.20;;;;;;;10.96;nan;99738.22;4996980;28;20038;-85
2022/12/23 09:54:28;;;;;;;2.25;1.10;;;;;;;10.99;nan;99735.25;4996268;28;20471;-86
2022/12/23 09:56:58;;;;;;;1.75;1.10;;;;;;;11.04;nan;99735.53;4994908;28;20038;-85
2022/12/23 09:59:32;;;;;;;2.10;1.38;;;;;;;11.09;nan;99729.72;4995954;28;20130;-86
2022/12/23 10:02:25;;;;;;;1.92;1.35;;;;;;;11.15;nan;99721.06;4997576;28;20062;-85
2022/12/23 10:05:04;;;;;;;1.88;1.35;;;;;;;11.18;nan;99715.47;4997737;28;20093;-85
2022/12/23 10:07:57;;;;;;;2.00;1.20;;;;;;;11.18;nan;99713.63;4995774;28;20034;-85
2022/12/23 10:10:39;;;;;;;2.05;1.40;;;;;;;11.23;nan;99718.41;4991826;28;20042;-86
2022/12/23 10:13:08;;;;;;;2.30;1.50;;;;;;;11.27;nan;99719.66;4990665;28;20474;-86
2022/12/23 10:15:46;;;;;;;2.78;1.33;;;;;;;11.20;nan;99716.06;4995060;28;20051;-85
2022/12/23 10:18:26;;;;;;;1.85;1.38;;;;;;;11.12;nan;99714.31;4994345;28;20094;-86
2022/12/23 10:21:01;;;;;;;2.70;1.60;;;;;;;11.10;nan;99702.25;4982990;28;20035;-87
2022/12/23 10:23:35;;;;;;;2.17;1.30;;;;;;;11.08;nan;99709.53;5007648;28;20069;-85
2022/12/23 10:26:06;;;;;;;2.50;1.52;;;;;;;11.10;nan;99699.63;5023245;28;20050;-86
2022/12/23 10:28:31;;;;;;;1.80;1.27;;;;;;;11.11;nan;99699.44;4998549;28;20046;-85
2022/12/23 10:31:11;;;;;;;2.50;1.55;;;;;;;11.13;nan;99697.47;5006446;28;20070;-86
2022/12/23 10:33:59;;;;;;;1.88;1.30;;;;;;;11.15;nan;99690.13;5020092;28;20065;-86
2022/12/23 10:36:42;;;;;;;2.13;1.50;;;;;;;11.17;nan;99696.09;5005539;28;20076;-86
2022/12/23 10:39:14;;;;;;;3.33;1.55;;;;;;;11.16;nan;99699.75;5007117;28;20033;-86
2022/12/23 10:42:06;;;;;;;1.70;1.20;;;;;;;11.16;nan;99693.63;4993001;28;20034;-85
2022/12/23 10:44:48;;;;;;;2.00;1.30;;;;;;;11.15;nan;99690.13;4991848;28;20092;-86
2022/12/23 10:47:30;;;;;;;2.25;1.60;;;;;;;11.15;nan;99686.69;4981863;28;20054;-85
2022/12/23 10:50:10;;;;;;;2.10;1.63;;;;;;;11.13;nan;99676.28;4990730;28;20696;-86
2022/12/23 10:52:40;;;;;;;2.33;1.73;;;;;;;11.14;nan;99675.28;4996605;28;20058;-86
2022/12/23 10:55:13;;;;;;;4.35;2.17;;;;;;;11.12;nan;99666.69;4991590;28;20065;-85
2022/12/23 10:57:38;;;;;;;3.20;2.33;;;;;;;11.12;nan;99661.41;4989711;28;20047;-85
2022/12/23 11:00:24;;;;;;;3.60;2.10;;;;;;;11.11;nan;99658.91;4989587;28;20241;-86
2022/12/23 11:03:07;;;;;;;3.58;2.25;;;;;;;11.10;nan;99650.16;4987874;28;20050;-86
2022/12/23 11:05:33;;;;;;;2.67;1.85;;;;;;;11.08;nan;99648.69;4992023;28;20053;-86
2022/12/23 11:07:59;;;;;;;3.08;2.00;;;;;;;11.07;nan;99650.53;4993234;28;20039;-86
2022/12/23 11:10:30;;;;;;;5.93;2.75;;;;;;;11.07;nan;99641.78;4993152;28;20070;-86
2022/12/23 11:12:55;;;;;;;2.90;2.17;;;;;;;11.08;nan;99632.81;4997079;28;20034;-85
2022/12/23 11:15:29;;;;;;;4.20;2.10;;;;;;;11.07;nan;99632.00;4995232;28;20053;-85
2022/12/23 11:18:13;;;;;;;2.95;1.80;;;;;;;11.08;nan;99631.00;4991974;28;20038;-86
2022/12/23 11:20:41;;;;;;;2.60;2.00;;;;;;;11.10;nan;99633.47;4992786;28;20424;-86
2022/12/23 11:23:22;;;;;;;2.80;2.20;;;;;;;11.11;nan;99619.22;4995449;28;20125;-85
2022/12/23 11:25:47;;;;;;;3.10;2.08;;;;;;;11.11;nan;99604.19;4991784;28;20035;-85
2022/12/23 11:28:18;;;;;;;2.63;1.70;;;;;;;11.12;nan;99603.19;4991628;28;20041;-86
2022/12/23 11:31:07;;;;;;;3.08;2.10;;;;;;;11.13;nan;99585.47;5008998;28;20117;-85
2022/12/23 11:33:38;;;;;;;4.90;2.03;;;;;;;11.14;nan;99585.31;4995296;28;20043;-85
2022/12/23 11:36:12;;;;;;;4.05;1.90;;;;;;;11.16;nan;99575.38;4994579;28;20092;-85
2022/12/23 11:38:53;;;;;;;3.35;1.95;;;;;;;11.17;nan;99570.91;4991279;28;20491;-85
2022/12/23 11:41:34;;;;;;;3.15;1.80;;;;;;;11.19;nan;99566.25;4993261;28;20460;-85
2022/12/23 11:44:03;;;;;;;;;;;;;;;11.17;nan;99565.63;4991414;28;20046;-86
2022/12/23 11:46:31;;;;;;;2.75;1.90;;;;;;;11.13;nan;99565.16;4991621;28;19926;-85
2022/12/23 11:49:18;;;;;;;2.10;1.40;;;;;;;11.14;nan;99560.69;4993953;28;20050;-86
2022/12/23 11:52:08;;;;;;;2.33;1.60;;;;;;;11.12;nan;99560.84;4994895;28;20125;-86
2022/12/23 11:54:33;;;;;;;3.42;1.60;;;;;;;11.13;nan;99561.66;4993646;28;20189;-84
2022/12/23 11:57:02;;;;;;;3.55;1.40;;;;;;;11.12;nan;99546.81;4993958;28;20448;-86
2022/12/23 11:59:38;;;;;;;3.47;1.30;;;;;;;11.10;nan;99540.88;5006636;28;20038;-86
2022/12/23 12:02:14;;;;;;;3.65;1.25;;;;;;;11.12;nan;99544.16;4988281;28;20034;-85
2022/12/23 12:04:40;;;;;;;3.28;1.35;;;;;;;11.12;nan;99544.16;4989819;28;20486;-85
2022/12/23 12:07:11;;;;;;;4.63;1.23;;;;;;;11.11;nan;99538.06;4989756;28;20031;-85
2022/12/23 12:09:39;;;;;;;2.60;1.20;;;;;;;11.09;nan;99533.94;4992639;28;20036;-85
2022/12/23 12:12:12;;;;;;;2.22;1.50;;;;;;;11.10;nan;99530.28;4990880;28;20046;-86
2022/12/23 12:14:45;;;;;;;3.22;2.08;;;;;;;11.10;nan;99530.28;4983185;28;20031;-86
2022/12/23 12:17:41;;;;;;;3.22;2.10;;;;;;;11.12;nan;99520.34;4984112;28;20397;-86
2022/12/23 12:20:25;;;;;;;3.97;2.55;;;;;;;11.13;nan;99508.75;4991748;28;20035;-87
2022/12/23 12:22:56;;;;;;;3.47;2.25;;;;;;;11.15;nan;99506.75;5006589;28;20459;-86
2022/12/23 12:25:31;;;;;;;4.15;2.50;;;;;;;11.17;nan;99497.63;4985789;28;20035;-86
2022/12/23 12:28:03;;;;;;;3.58;2.10;;;;;;;11.17;nan;99502.09;4992175;28;20562;-86
2022/12/23 12:30:41;;;;;;;3.17;2.17;;;;;;;11.21;nan;99498.09;4992093;28;20061;-85
2022/12/23 12:33:16;;;;;;;2.85;2.22;;;;;;;11.26;nan;99490.44;5007740;28;20039;-86
2022/12/23 12:35:53;;;;;;;3.78;2.40;;;;;;;11.28;nan;99472.56;4983712;28;20046;-86